createdAt,value
2022-11-01T00:03:13.408Z,16.63
2022-11-01T00:08:07.037Z,12.55
2022-11-01T00:13:00.090Z,14.02
2022-11-01T00:17:54.701Z,17.63
2022-11-01T00:22:48.943Z,12.98
2022-11-01T00:27:42.750Z,12.00
2022-11-01T00:32:36.375Z,11.98
2022-11-01T00:37:31.549Z,13.70
2022-11-01T00:42:25.426Z,8.70
2022-11-01T00:47:18.854Z,11.05
2022-11-01T00:52:12.874Z,11.10
2022-11-01T00:57:07.625Z,11.80
2022-11-01T01:02:01.684Z,17.38
2022-11-01T01:06:55.614Z,10.55
2022-11-01T01:11:47.990Z,12.52
2022-11-01T01:21:35.909Z,13.57
2022-11-01T01:26:29.087Z,14.60
2022-11-01T01:31:23.047Z,14.35
2022-11-01T01:36:17.662Z,23.20
2022-11-01T01:41:29.190Z,10.00
2022-11-01T01:46:21.860Z,9.45
2022-11-01T01:51:18.508Z,12.05
2022-11-01T01:56:32.432Z,9.07
2022-11-01T02:01:26.511Z,11.05
2022-11-01T02:06:22.228Z,8.73
2022-11-01T02:11:18.273Z,6.90
2022-11-01T02:16:29.794Z,6.90
2022-11-01T02:21:50.174Z,7.25
2022-11-01T02:26:51.237Z,16.13
2022-11-01T02:31:59.479Z,6.55
2022-11-01T02:37:21.404Z,8.02
2022-11-01T02:42:30.397Z,10.82
2022-11-01T02:47:25.119Z,7.22
2022-11-01T02:52:28.227Z,14.38
2022-11-01T02:57:35.806Z,8.73
2022-11-01T03:02:40.596Z,9.30
2022-11-01T03:07:35.270Z,11.45
2022-11-01T03:17:35.603Z,8.93
2022-11-01T03:22:31.392Z,6.40
2022-11-01T03:27:43.858Z,6.47
2022-11-01T03:32:51.936Z,11.88
2022-11-01T03:37:47.116Z,7.35
2022-11-01T03:42:40.595Z,8.18
2022-11-01T03:47:33.565Z,11.07
2022-11-01T03:52:26.302Z,6.47
2022-11-01T03:57:20.895Z,6.38
2022-11-01T04:02:15.653Z,7.60
2022-11-01T04:07:09.911Z,11.50
2022-11-01T04:12:03.622Z,7.57
2022-11-01T04:17:15.622Z,6.65
2022-11-01T04:22:08.810Z,8.68
2022-11-01T04:27:03.744Z,7.85
2022-11-01T04:31:57.314Z,8.25
2022-11-01T04:36:51.203Z,10.52
2022-11-01T04:41:44.223Z,9.93
2022-11-01T04:46:38.242Z,5.68
2022-11-01T04:51:31.995Z,6.93
2022-11-01T04:56:25.989Z,3.58
2022-11-01T05:01:20.345Z,3.03
2022-11-01T05:06:14.013Z,3.92
2022-11-01T05:11:07.645Z,4.18
2022-11-01T05:16:20.006Z,5.25
2022-11-01T05:21:15.429Z,5.78
2022-11-01T05:26:07.933Z,6.45
2022-11-01T05:31:01.560Z,4.55
2022-11-01T05:35:55.680Z,4.25
2022-11-01T05:40:48.865Z,3.00
2022-11-01T05:45:43.426Z,3.90
2022-11-01T05:50:36.997Z,4.72
2022-11-01T05:55:32.383Z,6.38
2022-11-01T06:00:26.014Z,5.95
2022-11-01T06:05:19.559Z,6.93
2022-11-01T06:10:13.392Z,4.55
2022-11-01T06:15:08.807Z,4.70
2022-11-01T06:20:03.614Z,3.47
2022-11-01T06:24:57.629Z,5.80
2022-11-01T06:29:51.323Z,4.70
2022-11-01T06:34:45.077Z,4.68
2022-11-01T06:39:38.976Z,4.90
2022-11-01T06:44:33.982Z,6.32
2022-11-01T06:49:29.431Z,6.22
2022-11-01T06:54:24.059Z,4.35
2022-11-01T06:59:17.442Z,4.72
2022-11-01T07:09:05.504Z,4.00
2022-11-01T07:13:59.957Z,4.80
2022-11-01T07:18:53.142Z,7.20
2022-11-01T07:23:47.173Z,6.25
2022-11-01T07:28:41.060Z,6.20
2022-11-01T07:33:35.207Z,11.85
2022-11-01T07:38:29.698Z,7.72
2022-11-01T07:43:22.552Z,9.80
2022-11-01T07:48:18.217Z,5.75
2022-11-01T07:53:19.711Z,8.00
2022-11-01T07:58:14.594Z,7.78
2022-11-01T08:03:28.072Z,2.72
2022-11-01T08:08:21.743Z,7.60
2022-11-01T08:13:22.732Z,5.07
2022-11-01T08:18:16.654Z,10.10
2022-11-01T08:23:11.107Z,12.38
2022-11-01T08:28:06.910Z,7.32
2022-11-01T08:33:02.038Z,8.70
2022-11-01T08:37:56.270Z,11.93
2022-11-01T08:42:49.783Z,5.10
2022-11-01T08:47:44.385Z,7.13
2022-11-01T08:52:38.063Z,4.32
2022-11-01T08:57:31.784Z,5.32
2022-11-01T09:02:25.361Z,4.68
2022-11-01T09:07:19.543Z,5.30
2022-11-01T09:12:14.696Z,8.55
2022-11-01T09:17:08.806Z,11.88
2022-11-01T09:22:03.048Z,13.60
2022-11-01T09:26:57.193Z,12.40
2022-11-01T09:31:54.486Z,13.43
2022-11-01T09:36:48.259Z,10.85
2022-11-01T09:41:47.973Z,12.52
2022-11-01T09:46:47.012Z,13.65
2022-11-01T09:51:40.991Z,13.55
2022-11-01T09:57:32.707Z,9.80
2022-11-01T10:02:50.500Z,12.15
2022-11-01T10:07:46.602Z,11.75
2022-11-01T10:13:01.117Z,15.93
2022-11-01T10:17:55.296Z,12.43
2022-11-01T10:22:51.006Z,15.23
2022-11-01T10:28:01.841Z,10.57
2022-11-01T10:33:02.659Z,12.85
2022-11-01T10:38:18.854Z,21.23
2022-11-01T10:43:22.257Z,17.17
2022-11-01T10:48:38.432Z,25.30
2022-11-01T10:53:34.783Z,25.92
2022-11-01T10:58:34.047Z,27.38
2022-11-01T11:03:30.177Z,24.75
2022-11-01T11:08:25.159Z,29.75
2022-11-01T11:13:22.297Z,35.33
2022-11-01T11:19:02.182Z,20.77
2022-11-01T11:24:20.348Z,20.70
2022-11-01T11:29:52.534Z,16.38
2022-11-01T11:34:53.435Z,19.65
2022-11-01T11:40:11.066Z,16.65
2022-11-01T11:45:30.238Z,18.88
2022-11-01T11:50:33.379Z,30.10
2022-11-01T11:55:34.798Z,14.23
2022-11-01T12:00:30.560Z,17.58
2022-11-01T12:05:26.662Z,17.85
2022-11-01T12:10:33.799Z,12.75
2022-11-01T12:15:34.394Z,30.13
2022-11-01T12:20:37.121Z,16.05
2022-11-01T12:25:31.336Z,13.13
2022-11-01T12:30:26.020Z,15.52
2022-11-01T12:35:25.954Z,11.35
2022-11-01T12:40:35.008Z,17.50
2022-11-01T12:45:43.351Z,15.10
2022-11-01T12:50:42.788Z,18.58
2022-11-01T12:55:41.074Z,13.88
2022-11-01T13:01:08.553Z,13.13
2022-11-01T13:06:15.929Z,21.45
2022-11-01T13:11:19.991Z,17.00
2022-11-01T13:16:15.902Z,11.38
2022-11-01T13:21:36.804Z,15.20
2022-11-01T13:26:52.578Z,13.40
2022-11-01T13:31:58.178Z,15.75
2022-11-01T13:37:13.928Z,16.70
2022-11-01T13:42:25.747Z,18.63
2022-11-01T13:47:28.452Z,10.73
2022-11-01T13:52:23.490Z,19.45
2022-11-01T13:57:18.498Z,12.07
2022-11-01T14:02:53.821Z,12.25
2022-11-01T14:07:46.486Z,15.82
2022-11-01T14:12:44.967Z,18.58
2022-11-01T14:17:57.471Z,11.75
2022-11-01T14:22:50.615Z,13.25
2022-11-01T14:27:51.792Z,15.13
2022-11-01T14:33:10.497Z,14.88
2022-11-01T14:38:08.098Z,16.67
2022-11-01T14:43:10.851Z,17.75
2022-11-01T14:48:10.972Z,14.68
2022-11-01T14:53:10.210Z,19.48
2022-11-01T14:58:10.525Z,17.88
2022-11-01T15:03:08.531Z,14.73
2022-11-01T15:08:03.427Z,19.80
2022-11-01T15:13:04.708Z,17.95
2022-11-01T15:18:01.046Z,18.30
2022-11-01T15:22:59.260Z,19.15
2022-11-01T15:27:52.776Z,17.67
2022-11-01T15:32:46.109Z,21.75
2022-11-01T15:37:40.521Z,13.43
2022-11-01T15:42:34.734Z,25.00
2022-11-01T15:47:29.769Z,11.75
2022-11-01T15:52:31.703Z,17.80
2022-11-01T15:57:43.743Z,13.10
2022-11-01T16:03:04.528Z,20.65
2022-11-01T16:08:18.596Z,18.45
2022-11-01T16:13:19.874Z,22.20
2022-11-01T16:18:35.709Z,29.10
2022-11-01T16:23:30.022Z,24.42
2022-11-01T16:28:24.020Z,20.00
2022-11-01T16:33:21.496Z,19.20
2022-11-01T16:38:23.997Z,16.15
2022-11-01T16:43:18.463Z,17.95
2022-11-01T16:48:30.078Z,24.63
2022-11-01T16:53:44.958Z,24.67
2022-11-01T16:58:37.371Z,17.27
2022-11-01T17:03:30.853Z,13.20
2022-11-01T17:08:25.569Z,14.75
2022-11-01T17:13:18.403Z,14.85
2022-11-01T17:18:33.059Z,17.70
2022-11-01T17:23:27.006Z,18.73
2022-11-01T17:28:21.493Z,21.75
2022-11-01T17:33:14.754Z,22.05
2022-11-01T17:38:15.973Z,27.55
2022-11-01T17:43:10.943Z,21.35
2022-11-01T17:48:04.842Z,22.40
2022-11-01T17:53:00.247Z,30.20
2022-11-01T17:57:54.674Z,20.90
2022-11-01T18:02:50.359Z,31.85
2022-11-01T18:07:44.742Z,25.80
2022-11-01T18:12:44.297Z,30.27
2022-11-01T18:17:50.877Z,21.15
2022-11-01T18:22:51.803Z,21.83
2022-11-01T18:27:45.727Z,29.70
2022-11-01T18:33:20.479Z,25.92
2022-11-01T18:38:17.975Z,30.30
2022-11-01T18:43:13.891Z,27.52
2022-11-01T18:48:12.574Z,26.58
2022-11-01T18:53:19.619Z,21.25
2022-11-01T18:58:21.443Z,26.38
2022-11-01T19:03:21.783Z,25.80
2022-11-01T19:08:25.045Z,28.27
2022-11-01T19:13:26.751Z,26.35
2022-11-01T19:18:24.255Z,20.38
2022-11-01T19:23:21.937Z,18.45
2022-11-01T19:28:38.555Z,20.67
2022-11-01T19:33:38.015Z,22.63
2022-11-01T19:38:31.641Z,19.27
2022-11-01T19:43:25.977Z,22.92
2022-11-01T19:48:25.025Z,26.80
2022-11-01T19:58:26.979Z,24.90
2022-11-01T20:04:01.989Z,24.67
2022-11-01T20:08:58.375Z,25.80
2022-11-01T20:13:52.104Z,19.33
2022-11-01T20:18:46.149Z,21.38
2022-11-01T20:23:40.159Z,25.42
2022-11-01T20:28:33.591Z,21.13
2022-11-01T20:33:26.935Z,21.75
2022-11-01T20:38:22.851Z,21.00
2022-11-01T20:43:16.363Z,22.15
2022-11-01T20:48:10.189Z,30.45
2022-11-01T20:53:06.066Z,22.48
2022-11-01T20:58:00.369Z,25.45
2022-11-01T21:02:55.219Z,23.25
2022-11-01T21:07:48.416Z,22.38
2022-11-01T21:12:45.184Z,17.38
2022-11-01T21:17:38.787Z,20.10
2022-11-01T21:22:32.413Z,32.67
2022-11-01T21:27:38.206Z,34.20
2022-11-01T21:32:44.091Z,21.02
2022-11-01T21:37:39.467Z,28.70
2022-11-01T21:42:52.349Z,20.63
2022-11-01T21:47:46.599Z,17.63
2022-11-01T21:52:40.501Z,18.95
2022-11-01T21:57:34.408Z,17.58
2022-11-01T22:02:29.015Z,21.17
2022-11-01T22:07:22.499Z,18.15
2022-11-01T22:12:16.287Z,23.20
2022-11-01T22:17:09.952Z,21.08
2022-11-01T22:22:03.935Z,23.73
2022-11-01T22:26:58.240Z,18.42
2022-11-01T22:31:52.159Z,16.95
2022-11-01T22:36:45.869Z,24.15
2022-11-01T22:41:41.224Z,21.30
2022-11-01T22:46:44.452Z,22.27
2022-11-01T22:52:12.207Z,18.20
2022-11-01T22:57:12.718Z,18.85
2022-11-01T23:02:17.902Z,19.85
2022-11-01T23:07:27.939Z,21.63
2022-11-01T23:12:42.468Z,22.17
2022-11-01T23:17:38.633Z,26.35
2022-11-01T23:22:36.741Z,19.75
2022-11-01T23:27:31.620Z,20.17
2022-11-01T23:32:25.747Z,28.00
2022-11-01T23:37:22.979Z,19.73
2022-11-01T23:42:39.554Z,21.95
2022-11-01T23:47:37.857Z,15.38
2022-11-01T23:57:35.396Z,21.50
